sensor_id;sensor_type;location;lat;lon;timestamp;pressure;altitude;pressure_sealevel;temperature;humidity
70902;BME280;58548;47.210;8.618;2023-03-20T00:02:15;94359.06;;;16.47;40.46
70902;BME280;58548;47.210;8.618;2023-03-20T00:04:45;94296.53;;;16.17;40.48
70902;BME280;58548;47.210;8.618;2023-03-20T00:07:10;94395.19;;;16.83;40.47
70902;BME280;58548;47.210;8.618;2023-03-20T00:09:38;94359.25;;;16.64;40.19
70902;BME280;58548;47.210;8.618;2023-03-20T00:12:04;94398.69;;;16.96;39.82
70902;BME280;58548;47.210;8.618;2023-03-20T00:14:32;94292.72;;;16.31;40.03
70902;BME280;58548;47.210;8.618;2023-03-20T00:17:11;94369.94;;;16.87;39.71
70902;BME280;58548;47.210;8.618;2023-03-20T00:19:42;94352.75;;;16.85;39.54
70902;BME280;58548;47.210;8.618;2023-03-20T00:22:08;94401.75;;;17.11;39.58
70902;BME280;58548;47.210;8.618;2023-03-20T00:24:34;94415.88;;;17.17;39.91
70902;BME280;58548;47.210;8.618;2023-03-20T00:27:00;94407.31;;;17.22;39.50
70902;BME280;58548;47.210;8.618;2023-03-20T00:29:30;94353.31;;;16.87;39.59
70902;BME280;58548;47.210;8.618;2023-03-20T00:31:59;94210.34;;;16.05;39.88
70902;BME280;58548;47.210;8.618;2023-03-20T00:34:32;94396.38;;;17.18;40.02
70902;BME280;58548;47.210;8.618;2023-03-20T00:37:00;94405.47;;;17.22;39.67
70902;BME280;58548;47.210;8.618;2023-03-20T00:39:29;94381.47;;;17.12;39.88
70902;BME280;58548;47.210;8.618;2023-03-20T00:42:01;94257.00;;;16.35;40.16
70902;BME280;58548;47.210;8.618;2023-03-20T00:44:49;94411.16;;;17.38;39.65
70902;BME280;58548;47.210;8.618;2023-03-20T00:47:21;94380.69;;;17.23;39.61
70902;BME280;58548;47.210;8.618;2023-03-20T00:49:55;94298.69;;;16.76;39.94
70902;BME280;58548;47.210;8.618;2023-03-20T00:52:21;94405.91;;;17.49;39.64
70902;BME280;58548;47.210;8.618;2023-03-20T00:54:47;94306.13;;;16.97;39.65
70902;BME280;58548;47.210;8.618;2023-03-20T00:57:29;94279.91;;;16.84;40.15
70902;BME280;58548;47.210;8.618;2023-03-20T01:00:16;94284.50;;;16.88;39.96
70902;BME280;58548;47.210;8.618;2023-03-20T01:02:44;94388.50;;;17.60;39.37
70902;BME280;58548;47.210;8.618;2023-03-20T01:05:13;94386.88;;;17.59;39.33
70902;BME280;58548;47.210;8.618;2023-03-20T01:07:39;94390.09;;;17.61;39.39
70902;BME280;58548;47.210;8.618;2023-03-20T01:10:09;94290.31;;;16.97;39.58
70902;BME280;58548;47.210;8.618;2023-03-20T01:12:40;94344.13;;;17.39;39.60
70902;BME280;58548;47.210;8.618;2023-03-20T01:15:29;94384.38;;;17.64;39.76
70902;BME280;58548;47.210;8.618;2023-03-20T01:17:58;94259.25;;;16.81;39.53
70902;BME280;58548;47.210;8.618;2023-03-20T01:20:29;94392.44;;;17.70;39.25
70902;BME280;58548;47.210;8.618;2023-03-20T01:22:56;94387.59;;;17.67;39.57
70902;BME280;58548;47.210;8.618;2023-03-20T01:25:22;94196.66;;;16.46;38.91
70902;BME280;58548;47.210;8.618;2023-03-20T01:27:53;94360.38;;;17.54;38.96
70902;BME280;58548;47.210;8.618;2023-03-20T01:30:25;94274.31;;;17.11;39.05
70902;BME280;58548;47.210;8.618;2023-03-20T01:32:55;94383.72;;;17.81;38.87
70902;BME280;58548;47.210;8.618;2023-03-20T01:35:26;94381.91;;;17.82;38.93
70902;BME280;58548;47.210;8.618;2023-03-20T01:37:54;94273.38;;;17.17;39.26
70902;BME280;58548;47.210;8.618;2023-03-20T01:42:59;94247.88;;;16.99;38.90
70902;BME280;58548;47.210;8.618;2023-03-20T01:45:33;94350.41;;;17.56;38.88
70902;BME280;58548;47.210;8.618;2023-03-20T01:48:14;94365.78;;;17.71;38.79
70902;BME280;58548;47.210;8.618;2023-03-20T01:50:41;94386.03;;;17.89;38.99
70902;BME280;58548;47.210;8.618;2023-03-20T01:55:47;94266.06;;;17.19;38.56
70902;BME280;58548;47.210;8.618;2023-03-20T01:58:26;94354.13;;;17.79;38.59
70902;BME280;58548;47.210;8.618;2023-03-20T02:00:55;94269.50;;;17.20;38.83
70902;BME280;58548;47.210;8.618;2023-03-20T02:03:23;94381.91;;;17.93;38.05
70902;BME280;58548;47.210;8.618;2023-03-20T02:05:54;94278.22;;;17.20;38.48
70902;BME280;58548;47.210;8.618;2023-03-20T02:08:30;94376.28;;;17.90;38.38
70902;BME280;58548;47.210;8.618;2023-03-20T02:11:01;94388.09;;;17.87;38.29
70902;BME280;58548;47.210;8.618;2023-03-20T02:13:32;94278.22;;;17.20;37.98
70902;BME280;58548;47.210;8.618;2023-03-20T02:16:14;94380.75;;;17.89;38.39
70902;BME280;58548;47.210;8.618;2023-03-20T02:18:44;94378.44;;;17.81;38.73
70902;BME280;58548;47.210;8.618;2023-03-20T02:32:40;94399.69;;;17.86;38.83
70902;BME280;58548;47.210;8.618;2023-03-20T02:40:57;94315.53;;;17.24;39.18
70902;BME280;58548;47.210;8.618;2023-03-20T02:48:57;94290.59;;;17.08;39.24
70902;BME280;58548;47.210;8.618;2023-03-20T02:51:39;94407.03;;;17.84;39.09
70902;BME280;58548;47.210;8.618;2023-03-20T02:54:12;94222.16;;;16.64;38.75
70902;BME280;58548;47.210;8.618;2023-03-20T03:00:03;94356.81;;;17.60;38.83
70902;BME280;58548;47.210;8.618;2023-03-20T03:02:47;94412.47;;;17.89;38.74
70902;BME280;58548;47.210;8.618;2023-03-20T03:05:24;94412.47;;;17.89;38.84
70902;BME280;58548;47.210;8.618;2023-03-20T03:07:58;94373.81;;;17.64;38.58
70902;BME280;58548;47.210;8.618;2023-03-20T03:10:35;94308.41;;;17.24;39.06
70902;BME280;58548;47.210;8.618;2023-03-20T03:13:10;94382.00;;;17.75;38.84
70902;BME280;58548;47.210;8.618;2023-03-20T03:15:46;94378.06;;;17.66;38.73
70902;BME280;58548;47.210;8.618;2023-03-20T03:18:20;94391.53;;;17.76;38.37
70902;BME280;58548;47.210;8.618;2023-03-20T03:20:54;94419.50;;;17.96;39.22
70902;BME280;58548;47.210;8.618;2023-03-20T03:23:32;94302.53;;;17.22;38.56
70902;BME280;58548;47.210;8.618;2023-03-20T03:26:06;94235.84;;;16.72;38.68
70902;BME280;58548;47.210;8.618;2023-03-20T03:28:42;94338.19;;;17.43;39.08
70902;BME280;58548;47.210;8.618;2023-03-20T03:31:16;94426.50;;;18.02;38.27
70902;BME280;58548;47.210;8.618;2023-03-20T03:33:52;94433.41;;;18.03;38.84
70902;BME280;58548;47.210;8.618;2023-03-20T03:41:56;94447.22;;;18.05;38.80
70902;BME280;58548;47.210;8.618;2023-03-20T03:47:16;94438.69;;;18.03;38.75
70902;BME280;58548;47.210;8.618;2023-03-20T03:49:49;94365.41;;;17.56;38.42
70902;BME280;58548;47.210;8.618;2023-03-20T03:52:22;94337.25;;;17.38;38.87
70902;BME280;58548;47.210;8.618;2023-03-20T03:55:09;94457.31;;;18.08;38.36
70902;BME280;58548;47.210;8.618;2023-03-20T03:57:46;94331.72;;;17.27;38.44
70902;BME280;58548;47.210;8.618;2023-03-20T04:00:20;94456.09;;;18.11;38.13
70902;BME280;58548;47.210;8.618;2023-03-20T04:02:52;94346.22;;;17.37;38.14
70902;BME280;58548;47.210;8.618;2023-03-20T04:05:19;94458.94;;;18.09;38.07
70902;BME280;58548;47.210;8.618;2023-03-20T04:07:52;94431.19;;;17.88;38.51
70902;BME280;58548;47.210;8.618;2023-03-20T04:10:21;94455.03;;;18.00;38.40
70902;BME280;58548;47.210;8.618;2023-03-20T04:12:50;94465.69;;;18.05;38.37
70902;BME280;58548;47.210;8.618;2023-03-20T04:15:16;94362.59;;;17.39;38.19
70902;BME280;58548;47.210;8.618;2023-03-20T04:17:43;94467.56;;;18.04;38.48
70902;BME280;58548;47.210;8.618;2023-03-20T04:20:10;94467.19;;;18.01;38.33
70902;BME280;58548;47.210;8.618;2023-03-20T04:22:37;94346.63;;;17.22;38.31
70902;BME280;58548;47.210;8.618;2023-03-20T04:25:24;94380.19;;;17.45;38.11
70902;BME280;58548;47.210;8.618;2023-03-20T04:27:54;94475.25;;;18.06;38.49
70902;BME280;58548;47.210;8.618;2023-03-20T04:30:22;94462.13;;;17.99;38.69
70902;BME280;58548;47.210;8.618;2023-03-20T04:32:48;94475.25;;;18.06;38.28
70902;BME280;58548;47.210;8.618;2023-03-20T04:35:14;94368.25;;;17.42;38.28
70902;BME280;58548;47.210;8.618;2023-03-20T04:37:42;94460.31;;;18.00;38.60
70902;BME280;58548;47.210;8.618;2023-03-20T04:40:09;94473.78;;;18.10;38.26
70902;BME280;58548;47.210;8.618;2023-03-20T04:42:38;94440.16;;;17.87;38.07
70902;BME280;58548;47.210;8.618;2023-03-20T04:45:10;94465.13;;;18.03;38.71
70902;BME280;58548;47.210;8.618;2023-03-20T04:47:39;94461.75;;;17.96;38.00
70902;BME280;58548;47.210;8.618;2023-03-20T04:50:08;94431.97;;;17.76;38.52
70902;BME280;58548;47.210;8.618;2023-03-20T04:52:36;94478.91;;;18.05;37.88
70902;BME280;58548;47.210;8.618;2023-03-20T04:55:02;94359.03;;;17.33;38.18
70902;BME280;58548;47.210;8.618;2023-03-20T04:57:28;94485.81;;;18.06;38.43
70902;BME280;58548;47.210;8.618;2023-03-20T04:59:56;94386.06;;;17.47;38.37
70902;BME280;58548;47.210;8.618;2023-03-20T05:02:22;94485.81;;;18.06;38.44
70902;BME280;58548;47.210;8.618;2023-03-20T05:04:51;94491.09;;;18.06;37.87
70902;BME280;58548;47.210;8.618;2023-03-20T05:07:22;94351.09;;;17.21;38.16
70902;BME280;58548;47.210;8.618;2023-03-20T05:09:48;94388.44;;;17.37;38.03
70902;BME280;58548;47.210;8.618;2023-03-20T05:12:16;94355.44;;;17.15;37.98
70902;BME280;58548;47.210;8.618;2023-03-20T05:14:42;94400.44;;;17.51;38.23
70902;BME280;58548;47.210;8.618;2023-03-20T05:17:08;94475.69;;;18.03;38.41
70902;BME280;58548;47.210;8.618;2023-03-20T05:19:34;94362.81;;;17.25;38.17
70902;BME280;58548;47.210;8.618;2023-03-20T05:22:00;94472.19;;;17.90;37.60
70902;BME280;58548;47.210;8.618;2023-03-20T05:24:30;94465.88;;;17.91;38.07
70902;BME280;58548;47.210;8.618;2023-03-20T05:26:59;94437.34;;;17.70;37.71
70902;BME280;58548;47.210;8.618;2023-03-20T05:29:25;94465.75;;;17.86;37.84
70902;BME280;58548;47.210;8.618;2023-03-20T05:31:53;94465.63;;;17.81;37.80
70902;BME280;58548;47.210;8.618;2023-03-20T05:34:20;94467.13;;;17.77;37.85
70902;BME280;58548;47.210;8.618;2023-03-20T05:36:51;94438.09;;;17.58;37.93
70902;BME280;58548;47.210;8.618;2023-03-20T05:39:19;94424.50;;;17.43;38.50
70902;BME280;58548;47.210;8.618;2023-03-20T05:41:47;94471.53;;;17.64;38.28
70902;BME280;58548;47.210;8.618;2023-03-20T05:44:13;94463.59;;;17.64;38.33
70902;BME280;58548;47.210;8.618;2023-03-20T05:46:44;94385.34;;;17.09;37.76
70902;BME280;58548;47.210;8.618;2023-03-20T05:49:10;94476.59;;;17.66;38.11
70902;BME280;58548;47.210;8.618;2023-03-20T05:51:36;94483.50;;;17.67;38.45
70902;BME280;58548;47.210;8.618;2023-03-20T05:54:04;94441.09;;;17.31;38.50
70902;BME280;58548;47.210;8.618;2023-03-20T05:56:30;94503.94;;;17.72;38.52
70902;BME280;58548;47.210;8.618;2023-03-20T05:58:56;94491.91;;;17.76;38.57
70902;BME280;58548;47.210;8.618;2023-03-20T06:01:24;94452.50;;;17.44;38.37
70902;BME280;58548;47.210;8.618;2023-03-20T06:03:50;94511.34;;;17.82;38.26
70902;BME280;58548;47.210;8.618;2023-03-20T06:06:19;94401.31;;;17.14;38.12
70902;BME280;58548;47.210;8.618;2023-03-20T06:08:45;94490.75;;;17.72;38.75
70902;BME280;58548;47.210;8.618;2023-03-20T06:11:13;94490.31;;;17.75;38.47
70902;BME280;58548;47.210;8.618;2023-03-20T06:13:44;94487.66;;;17.75;38.47
70902;BME280;58548;47.210;8.618;2023-03-20T06:16:10;94421.72;;;17.38;38.35
70902;BME280;58548;47.210;8.618;2023-03-20T06:18:36;94433.50;;;17.54;38.50
70902;BME280;58548;47.210;8.618;2023-03-20T06:21:04;94503.72;;;18.04;37.75
70902;BME280;58548;47.210;8.618;2023-03-20T06:23:30;94399.47;;;17.33;37.75
70902;BME280;58548;47.210;8.618;2023-03-20T06:25:56;94505.78;;;18.02;38.51
70902;BME280;58548;47.210;8.618;2023-03-20T06:28:24;94502.94;;;18.03;37.82
70902;BME280;58548;47.210;8.618;2023-03-20T06:30:51;94399.00;;;17.37;38.28
70902;BME280;58548;47.210;8.618;2023-03-20T06:33:18;94518.25;;;18.13;38.33
70902;BME280;58548;47.210;8.618;2023-03-20T06:35:48;94412.59;;;17.52;37.95
70902;BME280;58548;47.210;8.618;2023-03-20T06:38:15;94504.72;;;18.21;37.53
70902;BME280;58548;47.210;8.618;2023-03-20T06:40:43;94445.53;;;17.92;37.67
70902;BME280;58548;47.210;8.618;2023-03-20T06:43:14;94468.16;;;18.18;37.74
70902;BME280;58548;47.210;8.618;2023-03-20T06:45:42;94452.31;;;18.18;37.40
70902;BME280;58548;47.210;8.618;2023-03-20T06:48:08;94491.63;;;18.50;37.39
70902;BME280;58548;47.210;8.618;2023-03-20T06:50:34;94343.75;;;17.66;36.72
70902;BME280;58548;47.210;8.618;2023-03-20T06:53:00;94497.84;;;18.68;36.72
70902;BME280;58548;47.210;8.618;2023-03-20T06:55:26;94466.94;;;18.57;37.52
70902;BME280;58548;47.210;8.618;2023-03-20T06:57:58;94496.81;;;18.81;36.90
70902;BME280;58548;47.210;8.618;2023-03-20T07:00:28;94507.88;;;19.02;36.86
70902;BME280;58548;47.210;8.618;2023-03-20T07:02:54;94407.94;;;18.44;36.79
70902;BME280;58548;47.210;8.618;2023-03-20T07:05:22;94385.28;;;18.36;35.90
70902;BME280;58548;47.210;8.618;2023-03-20T07:07:48;94480.94;;;19.05;35.17
70902;BME280;58548;47.210;8.618;2023-03-20T07:10:14;94514.75;;;19.26;34.79
70902;BME280;58548;47.210;8.618;2023-03-20T07:12:42;94518.31;;;19.32;35.42
70902;BME280;58548;47.210;8.618;2023-03-20T07:15:12;94523.97;;;19.36;35.58
70902;BME280;58548;47.210;8.618;2023-03-20T07:17:38;94531.31;;;19.46;35.44
70902;BME280;58548;47.210;8.618;2023-03-20T07:20:07;94535.06;;;19.50;34.65
70902;BME280;58548;47.210;8.618;2023-03-20T07:22:35;94504.38;;;19.37;34.19
70902;BME280;58548;47.210;8.618;2023-03-20T07:25:02;94515.41;;;19.46;34.62
70902;BME280;58548;47.210;8.618;2023-03-20T07:27:30;94484.00;;;19.37;34.33
70902;BME280;58548;47.210;8.618;2023-03-20T07:29:56;94495.13;;;19.51;33.84
70902;BME280;58548;47.210;8.618;2023-03-20T07:32:22;94532.78;;;19.82;33.08
70902;BME280;58548;47.210;8.618;2023-03-20T07:34:50;94531.75;;;19.83;33.90
70902;BME280;58548;47.210;8.618;2023-03-20T07:37:19;94426.59;;;19.26;33.32
70902;BME280;58548;47.210;8.618;2023-03-20T07:39:44;94515.03;;;19.95;33.10
70902;BME280;58548;47.210;8.618;2023-03-20T07:42:10;94404.91;;;19.29;33.15
70902;BME280;58548;47.210;8.618;2023-03-20T07:44:38;94515.78;;;20.07;32.92
70902;BME280;58548;47.210;8.618;2023-03-20T07:47:04;94517.31;;;20.20;33.42
70902;BME280;58548;47.210;8.618;2023-03-20T07:49:36;94517.09;;;20.39;32.53
70902;BME280;58548;47.210;8.618;2023-03-20T07:52:04;94517.50;;;20.64;31.91
70902;BME280;58548;47.210;8.618;2023-03-20T07:54:30;94526.63;;;20.86;31.88
70902;BME280;58548;47.210;8.618;2023-03-20T07:56:59;94398.09;;;20.25;31.50
70902;BME280;58548;47.210;8.618;2023-03-20T07:59:28;94513.66;;;21.29;31.14
70902;BME280;58548;47.210;8.618;2023-03-20T08:01:53;94515.94;;;21.42;30.37
70902;BME280;58548;47.210;8.618;2023-03-20T08:04:20;94511.75;;;21.46;31.05
70902;BME280;58548;47.210;8.618;2023-03-20T08:06:48;94416.59;;;20.99;30.25
70902;BME280;58548;47.210;8.618;2023-03-20T08:09:15;94499.28;;;21.69;30.53
70902;BME280;58548;47.210;8.618;2023-03-20T08:11:43;94531.09;;;21.86;29.28
70902;BME280;58548;47.210;8.618;2023-03-20T08:14:11;94507.41;;;21.84;29.43
70902;BME280;58548;47.210;8.618;2023-03-20T08:16:39;94516.97;;;21.80;29.15
70902;BME280;58548;47.210;8.618;2023-03-20T08:19:07;94512.16;;;21.82;29.06
70902;BME280;58548;47.210;8.618;2023-03-20T08:21:35;94421.38;;;21.19;29.75
70902;BME280;58548;47.210;8.618;2023-03-20T08:24:03;94504.31;;;21.65;29.45
70902;BME280;58548;47.210;8.618;2023-03-20T08:26:29;94521.25;;;21.87;30.05
70902;BME280;58548;47.210;8.618;2023-03-20T08:28:55;94538.53;;;21.84;29.67
70902;BME280;58548;47.210;8.618;2023-03-20T08:31:24;94455.16;;;21.23;30.19
70902;BME280;58548;47.210;8.618;2023-03-20T08:33:50;94529.81;;;21.66;30.11
70902;BME280;58548;47.210;8.618;2023-03-20T08:36:17;94496.78;;;21.40;30.79
70902;BME280;58548;47.210;8.618;2023-03-20T08:38:52;94482.56;;;21.29;30.37
70902;BME280;58548;47.210;8.618;2023-03-20T08:41:20;94517.97;;;21.57;30.87
70902;BME280;58548;47.210;8.618;2023-03-20T08:43:46;94519.44;;;21.65;30.66
70902;BME280;58548;47.210;8.618;2023-03-20T08:46:12;94535.53;;;21.58;30.37
70902;BME280;58548;47.210;8.618;2023-03-20T08:48:40;94500.53;;;21.39;30.47
70902;BME280;58548;47.210;8.618;2023-03-20T08:51:07;94529.78;;;21.44;30.50
70902;BME280;58548;47.210;8.618;2023-03-20T08:53:40;94455.38;;;21.00;31.06
70902;BME280;58548;47.210;8.618;2023-03-20T08:56:09;94553.50;;;21.51;30.77
70902;BME280;58548;47.210;8.618;2023-03-20T08:58:37;94450.44;;;20.86;30.73
70902;BME280;58548;47.210;8.618;2023-03-20T09:01:07;94529.66;;;21.34;31.03
70902;BME280;58548;47.210;8.618;2023-03-20T09:03:36;94444.50;;;20.79;31.53
70902;BME280;58548;47.210;8.618;2023-03-20T09:06:08;94543.06;;;21.44;30.79
70902;BME280;58548;47.210;8.618;2023-03-20T09:08:35;94544.59;;;21.40;31.36
70902;BME280;58548;47.210;8.618;2023-03-20T09:11:04;94474.81;;;20.83;30.49
70902;BME280;58548;47.210;8.618;2023-03-20T09:13:30;94459.28;;;20.75;30.86
70902;BME280;58548;47.210;8.618;2023-03-20T09:15:58;94538.88;;;21.26;30.42
70902;BME280;58548;47.210;8.618;2023-03-20T09:18:26;94552.72;;;21.28;30.94
70902;BME280;58548;47.210;8.618;2023-03-20T09:20:55;94434.88;;;20.56;30.29
70902;BME280;58548;47.210;8.618;2023-03-20T09:23:21;94509.31;;;21.00;30.70
70902;BME280;58548;47.210;8.618;2023-03-20T09:25:49;94450.69;;;20.68;29.40
70902;BME280;58548;47.210;8.618;2023-03-20T09:28:17;94366.25;;;20.25;30.21
70902;BME280;58548;47.210;8.618;2023-03-20T09:30:46;94541.91;;;21.35;29.83
70902;BME280;58548;47.210;8.618;2023-03-20T09:33:12;94551.59;;;21.46;29.99
70902;BME280;58548;47.210;8.618;2023-03-20T09:35:41;94493.25;;;21.12;29.87
70902;BME280;58548;47.210;8.618;2023-03-20T09:38:09;94447.03;;;20.91;29.01
70902;BME280;58548;47.210;8.618;2023-03-20T09:43:36;94558.97;;;21.83;28.70
70902;BME280;58548;47.210;8.618;2023-03-20T09:52:26;94560.44;;;22.19;27.44
70902;BME280;58548;47.210;8.618;2023-03-20T09:55:15;94461.28;;;21.96;28.72
70902;BME280;58548;47.210;8.618;2023-03-20T09:57:56;94451.44;;;22.29;27.64
70902;BME280;58548;47.210;8.618;2023-03-20T10:00:27;94546.56;;;23.57;27.97
70902;BME280;58548;47.210;8.618;2023-03-20T10:03:16;94548.44;;;24.36;27.22
70902;BME280;58548;47.210;8.618;2023-03-20T10:08:29;94449.75;;;25.43;24.66
70902;BME280;58548;47.210;8.618;2023-03-20T10:14:11;94544.13;;;27.72;22.92
70902;BME280;58548;47.210;8.618;2023-03-20T10:17:01;94541.81;;;28.28;20.90
70902;BME280;58548;47.210;8.618;2023-03-20T10:19:41;94451.84;;;28.11;20.98
70902;BME280;58548;47.210;8.618;2023-03-20T10:27:59;94541.19;;;29.02;18.74
70902;BME280;58548;47.210;8.618;2023-03-20T10:35:52;94447.31;;;27.88;18.81
70902;BME280;58548;47.210;8.618;2023-03-20T10:41:14;94438.66;;;27.52;18.33
70902;BME280;58548;47.210;8.618;2023-03-20T10:43:50;94427.66;;;27.30;18.75
70902;BME280;58548;47.210;8.618;2023-03-20T10:46:32;94480.97;;;27.31;18.44
70902;BME280;58548;47.210;8.618;2023-03-20T10:49:13;94538.59;;;27.63;18.70
70902;BME280;58548;47.210;8.618;2023-03-20T10:51:47;94536.28;;;27.76;18.29
70902;BME280;58548;47.210;8.618;2023-03-20T10:56:54;94460.41;;;28.13;18.64
70902;BME280;58548;47.210;8.618;2023-03-20T10:59:25;94531.72;;;29.38;19.36
70902;BME280;58548;47.210;8.618;2023-03-20T11:01:54;94510.28;;;30.03;18.48
70902;BME280;58548;47.210;8.618;2023-03-20T11:04:20;94519.06;;;30.68;17.95
70902;BME280;58548;47.210;8.618;2023-03-20T11:18:03;94517.97;;;33.31;15.15
70902;BME280;58548;47.210;8.618;2023-03-20T11:20:38;94448.56;;;32.87;14.29
70902;BME280;58548;47.210;8.618;2023-03-20T11:23:06;94501.06;;;33.04;13.69
70902;BME280;58548;47.210;8.618;2023-03-20T11:33:50;94426.44;;;30.64;15.67
70902;BME280;58548;47.210;8.618;2023-03-20T11:36:25;94453.50;;;30.36;16.14
70902;BME280;58548;47.210;8.618;2023-03-20T11:38:52;94530.16;;;30.52;16.43
70902;BME280;58548;47.210;8.618;2023-03-20T11:41:25;94435.78;;;29.47;15.57
70902;BME280;58548;47.210;8.618;2023-03-20T11:43:54;94506.50;;;29.48;16.37
70902;BME280;58548;47.210;8.618;2023-03-20T11:46:22;94519.34;;;29.23;16.93
70902;BME280;58548;47.210;8.618;2023-03-20T11:49:10;94512.25;;;28.99;17.45
70902;BME280;58548;47.210;8.618;2023-03-20T11:51:43;94520.47;;;28.89;17.20
70902;BME280;58548;47.210;8.618;2023-03-20T11:54:19;94436.50;;;28.31;18.00
70902;BME280;58548;47.210;8.618;2023-03-20T11:59:21;94526.66;;;28.37;18.11
70902;BME280;58548;47.210;8.618;2023-03-20T12:01:54;94431.91;;;27.55;18.09
70902;BME280;58548;47.210;8.618;2023-03-20T12:04:30;94534.63;;;27.80;17.55
70902;BME280;58548;47.210;8.618;2023-03-20T12:07:05;94523.84;;;27.61;18.67
70902;BME280;58548;47.210;8.618;2023-03-20T12:10:02;94533.69;;;27.46;18.77
70902;BME280;58548;47.210;8.618;2023-03-20T12:34:00;94520.72;;;25.75;21.74
70902;BME280;58548;47.210;8.618;2023-03-20T12:36:38;94432.00;;;24.87;21.65
70902;BME280;58548;47.210;8.618;2023-03-20T12:44:43;94423.22;;;24.50;22.40
70902;BME280;58548;47.210;8.618;2023-03-20T12:58:36;94504.03;;;25.23;22.98
70902;BME280;58548;47.210;8.618;2023-03-20T13:04:24;94505.41;;;25.86;21.39
70902;BME280;58548;47.210;8.618;2023-03-20T13:07:00;94504.44;;;25.71;21.12
70902;BME280;58548;47.210;8.618;2023-03-20T13:12:24;94404.38;;;25.12;21.42
70902;BME280;58548;47.210;8.618;2023-03-20T13:20:33;94491.66;;;25.53;21.11
70902;BME280;58548;47.210;8.618;2023-03-20T13:31:47;94492.31;;;25.19;21.93
70902;BME280;58548;47.210;8.618;2023-03-20T13:42:21;94355.97;;;24.27;21.84
70902;BME280;58548;47.210;8.618;2023-03-20T13:44:57;94375.16;;;24.50;21.77
70902;BME280;58548;47.210;8.618;2023-03-20T13:47:27;94307.69;;;24.23;22.16
70902;BME280;58548;47.210;8.618;2023-03-20T13:52:43;94384.66;;;25.08;21.90
70902;BME280;58548;47.210;8.618;2023-03-20T14:00:58;94467.09;;;25.46;21.50
70902;BME280;58548;47.210;8.618;2023-03-20T14:03:34;94453.47;;;25.42;21.31
70902;BME280;58548;47.210;8.618;2023-03-20T14:08:56;94445.22;;;25.33;21.47
70902;BME280;58548;47.210;8.618;2023-03-20T14:14:07;94445.16;;;25.49;21.72
70902;BME280;58548;47.210;8.618;2023-03-20T14:16:37;94439.28;;;25.47;21.18
70902;BME280;58548;47.210;8.618;2023-03-20T14:21:47;94431.84;;;25.28;21.60
70902;BME280;58548;47.210;8.618;2023-03-20T14:24:17;94433.97;;;25.36;22.15
70902;BME280;58548;47.210;8.618;2023-03-20T14:26:54;94421.72;;;25.25;21.67
70902;BME280;58548;47.210;8.618;2023-03-20T14:29:32;94330.28;;;24.67;21.94
70902;BME280;58548;47.210;8.618;2023-03-20T14:35:01;94400.38;;;25.14;21.57
70902;BME280;58548;47.210;8.618;2023-03-20T14:38:10;94415.81;;;25.28;22.35
70902;BME280;58548;47.210;8.618;2023-03-20T14:49:35;94396.09;;;25.19;22.11
70902;BME280;58548;47.210;8.618;2023-03-20T14:55:28;94391.78;;;25.23;21.06
70902;BME280;58548;47.210;8.618;2023-03-20T14:58:04;94380.06;;;25.19;22.12
70902;BME280;58548;47.210;8.618;2023-03-20T15:00:46;94267.06;;;24.52;22.17
70902;BME280;58548;47.210;8.618;2023-03-20T15:03:16;94308.34;;;24.86;22.61
70902;BME280;58548;47.210;8.618;2023-03-20T15:05:46;94295.78;;;24.81;22.47
70902;BME280;58548;47.210;8.618;2023-03-20T15:08:24;94296.84;;;24.86;22.36
70902;BME280;58548;47.210;8.618;2023-03-20T15:11:04;94336.28;;;25.09;22.29
70902;BME280;58548;47.210;8.618;2023-03-20T15:13:37;94374.63;;;25.39;22.33
70902;BME280;58548;47.210;8.618;2023-03-20T15:16:12;94384.75;;;25.48;21.71
70902;BME280;58548;47.210;8.618;2023-03-20T15:18:49;94269.66;;;24.78;22.25
70902;BME280;58548;47.210;8.618;2023-03-20T15:21:26;94369.81;;;25.36;21.72
70902;BME280;58548;47.210;8.618;2023-03-20T15:23:57;94301.66;;;24.89;21.96
70902;BME280;58548;47.210;8.618;2023-03-20T15:26:28;94297.91;;;24.90;21.43
70902;BME280;58548;47.210;8.618;2023-03-20T15:29:13;94374.34;;;25.36;22.26
70902;BME280;58548;47.210;8.618;2023-03-20T15:31:41;94287.28;;;24.69;22.59
70902;BME280;58548;47.210;8.618;2023-03-20T15:34:15;94297.16;;;24.68;22.51
70902;BME280;58548;47.210;8.618;2023-03-20T15:36:46;94379.47;;;25.27;22.22
70902;BME280;58548;47.210;8.618;2023-03-20T15:39:20;94384.84;;;25.22;21.66
70902;BME280;58548;47.210;8.618;2023-03-20T15:42:14;94377.41;;;25.13;21.87
70902;BME280;58548;47.210;8.618;2023-03-20T15:44:45;94373.69;;;25.04;22.46
70902;BME280;58548;47.210;8.618;2023-03-20T15:49:58;94363.66;;;24.70;21.81
70902;BME280;58548;47.210;8.618;2023-03-20T15:52:40;94372.72;;;24.69;21.80
70902;BME280;58548;47.210;8.618;2023-03-20T15:55:15;94356.22;;;24.41;22.53
70902;BME280;58548;47.210;8.618;2023-03-20T15:57:44;94378.66;;;24.45;22.81
70902;BME280;58548;47.210;8.618;2023-03-20T16:00:26;94384.28;;;24.38;22.50
70902;BME280;58548;47.210;8.618;2023-03-20T16:03:00;94387.75;;;24.23;22.63
70902;BME280;58548;47.210;8.618;2023-03-20T16:05:32;94377.09;;;24.13;22.53
70902;BME280;58548;47.210;8.618;2023-03-20T16:08:35;94373.34;;;23.93;22.52
70902;BME280;58548;47.210;8.618;2023-03-20T16:11:12;94385.59;;;23.84;22.74
70902;BME280;58548;47.210;8.618;2023-03-20T16:13:45;94377.56;;;23.63;23.28
70902;BME280;58548;47.210;8.618;2023-03-20T16:16:16;94386.09;;;23.50;23.20
70902;BME280;58548;47.210;8.618;2023-03-20T16:18:45;94366.84;;;23.27;23.48
70902;BME280;58548;47.210;8.618;2023-03-20T16:21:25;94360.88;;;23.10;23.46
70902;BME280;58548;47.210;8.618;2023-03-20T16:23:56;94356.28;;;22.89;23.93
70902;BME280;58548;47.210;8.618;2023-03-20T16:26:25;94396.50;;;22.93;23.81
70902;BME280;58548;47.210;8.618;2023-03-20T16:28:58;94377.78;;;22.72;24.09
70902;BME280;58548;47.210;8.618;2023-03-20T16:34:05;94384.19;;;22.39;24.41
70902;BME280;58548;47.210;8.618;2023-03-20T16:36:35;94379.25;;;22.15;25.07
70902;BME280;58548;47.210;8.618;2023-03-20T16:39:19;94370.59;;;21.92;25.54